Time;durP1;ratioP1;P1;durP2;ratioP2;P2;SDS_P1;SDS_P2;PMS_P1;PMS_P2;Temp;Humidity;BMP_temperature;BMP_pressure;BME280_temperature;BME280_humidity;BME280_pressure;Samples;Min_cycle;Max_cycle;Signal;HPM_P1;HPM_P2
2022/04/24 00:01:17;;;;;;;2.58;2.30;;;14.40;38.10;;;11.81;42.46;100293.91;8257192;28;20113;-81
2022/04/24 00:05:19;;;;;;;2.50;2.30;;;14.30;38.20;;;12.00;42.15;100324.09;8255333;28;20142;-81
2022/04/24 00:09:21;;;;;;;2.30;2.10;;;14.20;38.20;;;11.98;42.43;100320.75;8254981;28;20129;-81
2022/04/24 00:13:23;;;;;;;2.00;1.85;;;14.20;38.30;;;11.88;42.47;100321.38;8248357;28;20169;-80
2022/04/24 00:17:25;;;;;;;2.67;2.28;;;14.10;38.30;;;11.74;42.47;100303.94;8247998;28;20522;-81
2022/04/24 00:21:26;;;;;;;2.60;1.95;;;14.00;38.40;;;11.74;42.81;100300.47;8253530;28;20037;-81
2022/04/24 00:25:28;;;;;;;2.67;1.92;;;14.00;38.50;;;11.69;42.22;100306.03;8241425;28;20125;-81
2022/04/24 00:29:30;;;;;;;2.40;1.83;;;13.70;38.30;;;11.62;42.76;100294.31;8242618;28;20118;-81
2022/04/24 00:33:32;;;;;;;2.70;2.50;;;13.90;38.50;;;11.64;43.04;100307.28;8248533;28;20118;-81
2022/04/24 00:37:34;;;;;;;4.32;1.48;;;14.00;38.70;;;11.71;42.96;100317.22;8247237;28;20498;-81
2022/04/24 00:41:42;;;;;;;3.92;1.85;;;13.90;38.60;;;11.66;43.16;100315.84;8252509;28;20118;-81
2022/04/24 00:45:44;;;;;;;3.00;2.30;;;13.70;38.60;;;11.54;42.70;100285.28;8241192;28;20113;-81
2022/04/24 00:49:46;;;;;;;3.53;2.42;;;14.00;38.70;;;11.62;43.12;100317.84;8250689;28;20498;-80
2022/04/24 00:53:47;;;;;;;4.75;2.00;;;13.80;38.80;;;11.58;42.91;100313.72;8246268;28;20520;-81
2022/04/24 00:57:49;;;;;;;2.50;1.88;;;13.70;38.80;;;11.40;42.87;100286.22;8253973;28;20040;-80
2022/04/24 01:01:51;;;;;;;8.98;2.15;;;13.70;38.90;;;11.08;42.86;100232.47;8247728;28;20557;-80
2022/04/24 01:05:54;;;;;;;2.22;2.05;;;13.60;38.90;;;10.81;43.20;100192.47;8248620;28;20121;-80
2022/04/24 01:09:57;;;;;;;2.63;2.20;;;13.50;38.90;;;11.39;43.17;100292.34;8236387;28;20113;-80
2022/04/24 01:13:59;;;;;;;2.95;1.95;;;13.30;38.90;;;11.25;42.95;100274.97;8246227;28;20155;-80
2022/04/24 01:18:01;;;;;;;2.42;1.70;;;13.50;39.00;;;10.94;42.98;100231.72;8244906;28;20038;-80
2022/04/24 01:22:03;;;;;;;4.55;2.08;;;13.50;39.10;;;10.75;43.00;100214.59;8246240;28;20109;-81
2022/04/24 01:26:05;;;;;;;5.75;2.53;;;13.40;39.10;;;11.15;43.15;100290.44;8249255;28;20114;-81
2022/04/24 01:30:08;;;;;;;2.30;2.08;;;13.40;39.20;;;10.75;43.36;100229.44;8262336;28;20137;-81
2022/04/24 01:34:11;;;;;;;3.38;2.25;;;13.30;39.20;;;10.94;43.98;100270.91;8250961;28;20738;-80
2022/04/24 01:38:13;;;;;;;3.47;2.38;;;13.30;39.20;;;10.99;43.63;100285.34;8246885;28;20047;-81
2022/04/24 01:42:14;;;;;;;2.97;2.22;;;13.10;39.30;;;10.93;43.77;100280.50;8229221;28;20134;-81
2022/04/24 01:46:16;;;;;;;2.47;1.95;;;13.20;39.30;;;10.62;43.61;100240.66;8253576;28;20121;-80
2022/04/24 01:50:18;;;;;;;3.30;2.00;;;13.00;39.30;;;10.77;43.81;100274.56;8247461;28;20572;-81
2022/04/24 01:54:19;;;;;;;2.88;2.17;;;13.00;39.40;;;10.79;43.99;100280.53;8251482;28;20109;-81
2022/04/24 01:58:21;;;;;;;3.20;1.90;;;13.00;39.50;;;10.76;43.60;100278.13;8247212;28;20141;-80
2022/04/24 02:02:23;;;;;;;4.28;1.75;;;13.00;39.50;;;10.73;43.79;100281.75;8251883;28;20141;-80
2022/04/24 02:06:24;;;;;;;2.42;2.08;;;13.10;39.70;;;10.72;44.22;100287.06;8246644;28;20121;-80
2022/04/24 02:10:26;;;;;;;3.78;2.40;;;13.00;39.70;;;10.70;43.97;100286.34;8246988;28;20125;-80
2022/04/24 02:14:27;;;;;;;3.63;2.10;;;12.90;39.70;;;10.54;43.67;100269.03;8252801;28;20137;-80
2022/04/24 02:18:29;;;;;;;2.92;2.10;;;12.90;39.70;;;10.44;44.13;100251.41;8248081;28;20039;-81
2022/04/24 02:22:32;;;;;;;2.47;2.28;;;12.80;39.60;;;10.20;44.36;100234.53;8244334;28;20118;-81
2022/04/24 02:26:34;;;;;;;2.78;2.03;;;12.60;39.70;;;10.35;44.21;100276.31;8250268;28;20129;-80
2022/04/24 02:30:36;;;;;;;3.35;2.05;;;12.70;39.80;;;10.26;44.39;100274.22;8246456;28;20117;-81
2022/04/24 02:34:38;;;;;;;2.63;2.42;;;12.60;39.90;;;10.04;44.45;100239.00;8249181;28;20109;-80
2022/04/24 02:38:39;;;;;;;4.18;2.10;;;12.40;40.00;;;10.14;44.31;100260.16;8259543;28;20474;-80
2022/04/24 02:42:41;;;;;;;5.38;2.63;;;12.50;40.10;;;9.97;44.72;100246.38;8243147;28;20456;-81
2022/04/24 02:46:42;;;;;;;3.38;2.47;;;12.60;40.40;;;10.03;44.36;100250.38;8242122;28;20039;-80
2022/04/24 02:50:44;;;;;;;5.47;2.08;;;12.30;40.30;;;9.95;44.46;100244.78;8251855;28;20117;-80
2022/04/24 02:54:46;;;;;;;3.17;2.00;;;12.30;40.40;;;9.82;44.50;100215.16;8256967;28;20539;-80
2022/04/24 02:58:48;;;;;;;3.83;2.50;;;12.10;40.40;;;9.80;44.83;100217.84;8251108;28;20494;-80
2022/04/24 03:02:51;;;;;;;2.92;2.47;;;12.00;40.40;;;9.87;45.16;100233.97;8252051;28;20105;-80
2022/04/24 03:06:53;;;;;;;3.35;2.70;;;12.10;40.50;;;9.86;45.23;100237.53;8226527;28;20129;-81
2022/04/24 03:10:55;;;;;;;2.72;2.20;;;11.80;40.40;;;9.47;44.76;100179.84;8254737;28;20113;-80
2022/04/24 03:14:56;;;;;;;3.15;2.42;;;12.10;40.80;;;9.73;45.13;100214.78;8257115;28;20133;-80
2022/04/24 03:18:58;;;;;;;4.13;2.47;;;12.00;40.80;;;9.61;45.30;100207.69;8241121;28;20133;-80
2022/04/24 03:23:00;;;;;;;3.92;2.40;;;12.00;40.70;;;9.61;45.19;100207.69;8249627;28;20114;-80
2022/04/24 03:27:01;;;;;;;2.47;2.28;;;12.00;40.80;;;9.57;45.69;100198.38;8250321;28;20122;-80
2022/04/24 03:31:03;;;;;;;3.47;2.65;;;11.90;40.80;;;9.34;44.92;100159.81;8238731;28;20039;-81
2022/04/24 03:35:09;;;;;;;3.13;2.65;;;11.90;40.90;;;9.53;45.30;100196.88;8240603;28;20105;-80
2022/04/24 03:39:10;;;;;;;2.92;2.35;;;11.90;41.00;;;9.50;45.73;100213.56;8235794;28;20153;-81
2022/04/24 03:43:12;;;;;;;5.50;2.53;;;11.90;41.00;;;9.09;45.67;100153.44;8246580;28;20113;-81
2022/04/24 03:47:14;;;;;;;4.55;2.75;;;11.70;41.00;;;9.46;45.32;100224.25;8255468;28;20133;-80
2022/04/24 03:51:16;;;;;;;4.22;2.28;;;11.70;41.10;;;9.03;45.71;100148.59;8253549;28;20121;-80
2022/04/24 03:55:18;;;;;;;3.42;2.55;;;11.70;41.10;;;9.43;45.76;100216.63;8255266;28;20119;-80
2022/04/24 03:59:19;;;;;;;3.10;2.13;;;11.70;41.20;;;9.36;45.47;100216.13;8255319;28;20040;-80
2022/04/24 04:03:21;;;;;;;3.97;2.58;;;11.60;41.20;;;9.14;45.98;100187.88;8241977;28;20126;-80
2022/04/24 04:07:23;;;;;;;3.67;2.78;;;11.60;41.20;;;9.07;46.04;100178.72;8259733;28;20126;-80
2022/04/24 04:11:26;;;;;;;2.88;2.08;;;11.60;41.30;;;9.23;45.79;100202.97;8243980;28;20118;-80
2022/04/24 04:15:28;;;;;;;4.82;2.33;;;11.30;41.30;;;9.11;46.02;100195.88;8251247;28;20046;-80
2022/04/24 04:19:29;;;;;;;3.33;2.22;;;11.50;41.30;;;8.88;45.98;100162.50;8250241;28;20113;-80
2022/04/24 04:23:31;;;;;;;2.60;2.40;;;11.50;41.40;;;9.21;46.09;100233.50;8245326;28;20117;-80
2022/04/24 04:27:32;;;;;;;3.47;2.53;;;11.50;41.50;;;9.13;46.20;100222.69;8250667;28;20109;-80
2022/04/24 04:31:34;;;;;;;3.47;2.60;;;11.30;41.50;;;9.08;46.22;100212.50;8254795;28;20460;-80
2022/04/24 04:35:37;;;;;;;3.53;2.40;;;11.30;41.60;;;9.20;46.38;100228.34;8247089;28;20085;-80
2022/04/24 04:39:38;;;;;;;2.65;2.45;;;11.40;41.70;;;8.94;46.55;100183.81;8254965;28;20113;-81
2022/04/24 04:43:40;;;;;;;3.40;2.53;;;11.40;41.60;;;9.08;46.06;100212.50;8248268;28;20105;-81
2022/04/24 04:47:42;;;;;;;3.47;2.47;;;11.10;41.40;;;9.12;46.48;100226.19;8247412;28;20133;-80
2022/04/24 04:51:43;;;;;;;4.78;2.67;;;11.30;41.80;;;9.16;46.72;100222.50;8255313;28;20468;-80
2022/04/24 04:55:45;;;;;;;2.63;2.22;;;11.40;41.80;;;9.09;46.70;100213.34;8254049;28;20038;-80
2022/04/24 04:59:46;;;;;;;3.22;2.47;;;11.40;42.00;;;8.99;46.39;100183.53;8254809;28;20109;-80
2022/04/24 05:03:48;;;;;;;3.15;2.08;;;11.40;42.10;;;9.22;46.20;100211.72;8245446;28;20116;-80
2022/04/24 05:07:51;;;;;;;2.88;2.67;;;11.50;42.10;;;9.26;46.26;100213.22;8261223;28;20107;-80
2022/04/24 05:11:53;;;;;;;3.33;2.78;;;11.40;42.10;;;8.84;46.77;100141.84;8238608;28;20050;-80
2022/04/24 05:15:54;;;;;;;2.70;2.45;;;11.40;42.00;;;9.34;46.58;100211.94;8255134;28;20399;-80
2022/04/24 05:19:56;;;;;;;2.78;2.42;;;11.60;42.10;;;9.24;46.40;100202.06;8249015;28;20122;-80
2022/04/24 05:23:57;;;;;;;4.63;2.67;;;11.50;42.20;;;9.38;46.40;100205.63;8256407;28;20113;-80
2022/04/24 05:28:00;;;;;;;3.65;2.55;;;11.60;42.30;;;9.60;46.69;100239.91;8248911;28;20130;-80
2022/04/24 05:32:02;;;;;;;2.85;2.58;;;11.70;42.30;;;9.14;46.71;100154.00;8243836;28;20121;-80
2022/04/24 05:36:07;;;;;;;4.68;2.75;;;11.80;42.30;;;9.65;46.86;100221.41;8240395;28;20042;-81
2022/04/24 05:40:09;;;;;;;2.60;2.20;;;11.80;42.60;;;9.78;46.65;100219.72;8227312;28;20030;-80
2022/04/24 05:44:11;;;;;;;2.53;2.17;;;12.00;42.40;;;9.95;46.72;100237.81;8231012;28;20122;-80
2022/04/24 05:48:12;;;;;;;3.63;2.45;;;11.90;42.30;;;9.99;46.63;100222.81;8229672;28;20067;-80
2022/04/24 05:52:14;;;;;;;3.72;2.85;;;12.10;42.30;;;9.59;46.60;100148.78;8228263;28;20510;-86
2022/04/24 05:56:18;;;;;;;4.10;3.13;;;12.00;42.30;;;10.00;46.44;100194.97;8211835;28;20039;-80
2022/04/24 06:00:21;;;;;;;4.20;3.40;;;12.30;42.50;;;10.33;46.89;100226.81;8227956;28;20129;-80
2022/04/24 06:04:23;;;;;;;6.85;3.08;;;12.40;42.40;;;10.38;46.72;100219.53;8230355;28;20377;-85
2022/04/24 06:08:24;;;;;;;3.60;3.00;;;12.40;42.80;;;10.59;46.89;100230.41;8214062;28;20575;-90
2022/04/24 06:12:26;;;;;;;4.57;2.70;;;12.60;42.50;;;10.72;46.51;100238.31;8235223;28;20121;-86
2022/04/24 06:16:27;;;;;;;3.20;2.72;;;12.60;42.60;;;10.85;46.78;100228.75;8203210;28;20046;-85
2022/04/24 06:20:29;;;;;;;3.90;2.80;;;12.80;42.40;;;10.67;46.79;100169.88;8248323;28;20053;-85
2022/04/24 06:24:31;;;;;;;3.75;2.58;;;12.70;42.30;;;10.91;46.38;100188.34;8201402;28;20480;-87
2022/04/24 06:28:32;;;;;;;3.38;2.60;;;13.10;42.50;;;11.25;46.87;100212.25;8213034;28;20582;-90
2022/04/24 06:32:41;;;;;;;3.40;2.42;;;13.00;42.20;;;11.40;46.75;100200.75;8218270;28;20499;-85
2022/04/24 06:36:43;;;;;;;4.90;2.97;;;13.40;42.30;;;11.54;46.63;100191.16;8216711;28;20634;-84
2022/04/24 06:40:45;;;;;;;3.08;2.55;;;13.30;42.00;;;11.68;46.34;100193.66;8235626;28;20114;-85
2022/04/24 06:44:46;;;;;;;2.45;2.25;;;13.70;42.00;;;11.80;46.26;100187.59;8233030;28;20039;-86
2022/04/24 06:48:48;;;;;;;3.60;2.75;;;13.80;41.90;;;11.79;46.22;100164.16;8217569;28;20122;-91
2022/04/24 06:53:03;;;;;;;3.65;3.22;;;13.60;41.80;;;12.06;46.47;100175.34;8215813;28;20043;-87
2022/04/24 06:57:04;;;;;;;3.22;2.92;;;14.00;41.60;;;11.93;46.04;100125.63;8215327;28;20034;-85
2022/04/24 07:01:06;;;;;;;5.63;3.50;;;14.20;41.70;;;12.28;45.92;100158.94;8198238;28;20494;-85
2022/04/24 07:05:08;;;;;;;3.30;2.83;;;14.30;41.40;;;12.67;45.99;100190.25;8217613;28;20157;-82
2022/04/24 07:09:10;;;;;;;4.85;2.50;;;14.50;41.30;;;12.44;46.06;100129.03;8230984;28;20134;-83
2022/04/24 07:13:11;;;;;;;3.35;2.72;;;14.40;41.00;;;12.90;45.65;100181.53;8231086;28;20055;-84
2022/04/24 07:17:13;;;;;;;2.63;2.42;;;15.10;41.20;;;12.89;45.61;100155.44;8212920;28;20684;-84
2022/04/24 07:21:15;;;;;;;2.60;2.40;;;15.20;41.10;;;13.03;45.90;100165.72;8230859;28;20142;-84
2022/04/24 07:25:22;;;;;;;3.88;2.42;;;14.90;40.80;;;13.18;45.50;100169.84;8215973;28;20134;-83
2022/04/24 07:29:24;;;;;;;3.75;2.75;;;15.10;40.70;;;13.45;45.39;100177.44;8230606;28;20483;-83
2022/04/24 07:33:25;;;;;;;2.92;2.33;;;15.30;40.60;;;13.15;45.22;100098.44;8227245;28;20160;-82
2022/04/24 07:37:27;;;;;;;2.45;2.25;;;15.40;40.50;;;13.59;45.24;100150.16;8224286;28;20037;-88
2022/04/24 07:41:28;;;;;;;3.72;3.22;;;15.60;40.30;;;13.69;44.87;100140.63;8214124;28;20125;-87
2022/04/24 07:45:35;;;;;;;2.95;2.65;;;15.70;40.40;;;14.00;45.00;100169.72;8226679;28;20393;-82
2022/04/24 07:49:37;;;;;;;3.03;2.60;;;15.90;40.40;;;14.11;45.05;100158.34;8231849;28;20049;-89
2022/04/24 07:53:41;;;;;;;2.72;2.53;;;16.00;40.40;;;14.30;44.84;100157.72;8226311;28;20133;-83
2022/04/24 07:57:45;;;;;;;4.70;3.70;;;16.10;40.30;;;14.49;44.78;100147.41;8239065;28;20050;-85
2022/04/24 08:01:51;;;;;;;3.10;2.53;;;16.00;40.10;;;14.50;45.02;100111.44;8197506;28;20125;-85
2022/04/24 08:05:53;;;;;;;2.63;2.42;;;16.60;40.40;;;14.87;44.75;100125.06;8210628;28;20055;-83
2022/04/24 08:09:57;;;;;;;5.18;2.35;;;16.50;39.90;;;15.26;44.57;100139.31;8228416;28;20126;-84
2022/04/24 08:13:59;;;;;;;4.83;2.67;;;16.70;39.50;;;15.48;44.30;100137.50;8230123;28;20034;-85
2022/04/24 08:18:02;;;;;;;2.70;2.35;;;17.10;39.40;;;15.63;43.87;100135.34;8229806;28;20039;-85
2022/04/24 08:22:04;;;;;;;2.88;2.20;;;17.40;39.30;;;15.76;43.58;100122.00;8213587;28;20403;-86
2022/04/24 08:26:10;;;;;;;2.63;2.30;;;17.50;39.40;;;16.03;43.66;100138.03;8208968;28;20467;-85
2022/04/24 08:30:12;;;;;;;2.55;2.35;;;17.70;38.80;;;16.16;43.73;100124.63;8226311;28;20494;-85
2022/04/24 08:34:14;;;;;;;3.33;2.60;;;17.90;38.80;;;16.40;43.34;100131.31;8227688;28;20043;-84
2022/04/24 08:38:16;;;;;;;4.32;2.55;;;18.10;39.00;;;16.58;43.40;100121.78;8230326;28;20041;-89
2022/04/24 08:42:24;;;;;;;2.50;2.30;;;18.30;38.40;;;16.68;42.95;100106.75;8247414;28;20026;-85
2022/04/24 08:46:26;;;;;;;4.68;2.95;;;18.50;38.50;;;16.82;42.86;100097.63;8216832;28;20149;-85
2022/04/24 08:50:33;;;;;;;4.45;2.90;;;18.70;38.40;;;16.64;42.59;100050.03;8215615;28;20117;-84
2022/04/24 08:54:34;;;;;;;4.70;2.35;;;18.80;37.60;;;17.17;42.64;100107.56;8215421;28;20061;-84
2022/04/24 08:58:36;;;;;;;3.25;2.60;;;19.00;38.00;;;17.38;42.57;100135.56;8214254;28;20146;-81
2022/04/24 09:02:37;;;;;;;3.28;2.65;;;19.10;37.80;;;17.37;42.33;100104.88;8244911;28;20125;-82
2022/04/24 09:06:41;;;;;;;3.22;2.85;;;19.20;37.50;;;17.48;42.16;100102.88;8252612;28;20129;-86
2022/04/24 09:10:55;;;;;;;3.72;2.88;;;19.10;37.40;;;17.47;42.11;100069.56;8244775;28;20117;-84
2022/04/24 09:14:58;;;;;;;3.55;2.88;;;19.50;37.50;;;17.86;41.88;100110.81;8253437;28;20133;-83
2022/04/24 09:19:00;;;;;;;4.00;3.55;;;19.50;37.40;;;17.86;41.75;100098.44;8254430;28;20043;-84
2022/04/24 09:23:03;;;;;;;3.63;3.10;;;19.70;37.80;;;17.99;41.83;100090.19;8237053;28;20035;-83
2022/04/24 09:27:05;;;;;;;4.63;3.40;;;19.60;37.30;;;18.18;41.66;100089.22;8241446;28;20045;-85
2022/04/24 09:31:08;;;;;;;3.53;3.10;;;20.00;37.30;;;18.17;41.32;100092.81;8224914;28;20137;-83
2022/04/24 09:35:10;;;;;;;3.50;3.20;;;20.10;36.80;;;18.25;41.06;100092.91;8255734;28;20141;-86
2022/04/24 09:39:12;;;;;;;3.22;2.92;;;20.10;36.50;;;18.38;41.55;100099.66;8226188;28;20676;-82
2022/04/24 09:43:17;;;;;;;3.42;3.00;;;20.10;36.80;;;18.57;41.21;100123.28;8232406;28;20153;-84
2022/04/24 09:47:24;;;;;;;4.20;3.60;;;20.20;36.60;;;18.49;40.85;100075.63;8247052;28;20042;-81
2022/04/24 09:51:27;;;;;;;4.47;3.65;;;20.40;36.40;;;18.64;40.88;100094.44;8250770;28;20479;-82
2022/04/24 09:55:29;;;;;;;6.22;3.40;;;20.40;36.60;;;18.77;40.85;100111.63;8251980;28;20132;-83
2022/04/24 09:59:32;;;;;;;7.25;3.72;;;20.60;36.60;;;18.63;40.62;100079.53;8257664;28;20557;-83
2022/04/24 10:03:39;;;;;;;4.15;3.78;;;20.60;36.20;;;18.73;40.51;100102.28;8212688;28;20129;-82
2022/04/24 10:07:41;;;;;;;3.53;2.83;;;20.60;36.00;;;18.63;40.58;100080.38;8244973;28;20474;-82
2022/04/24 10:11:43;;;;;;;4.72;2.80;;;20.60;36.30;;;18.82;40.34;100099.72;8247564;28;20562;-81
2022/04/24 10:15:55;;;;;;;3.10;2.63;;;20.70;36.20;;;18.83;40.20;100101.41;8252066;28;20582;-81
2022/04/24 10:20:29;;;;;;;5.43;2.60;;;20.70;35.80;;;18.91;39.70;100086.41;8244393;28;20494;-82
2022/04/24 10:24:44;;;;;;;3.40;2.85;;;20.70;35.90;;;18.97;39.80;100061.97;8250366;28;20142;-82
2022/04/24 10:28:47;;;;;;;5.00;2.53;;;20.80;35.70;;;19.03;40.04;100060.53;8246871;28;20040;-82
2022/04/24 10:33:10;;;;;;;9.20;2.97;;;20.90;36.10;;;18.97;39.44;100045.28;8244038;28;20117;-82
2022/04/24 10:37:12;;;;;;;2.67;2.47;;;21.00;35.50;;;19.22;39.18;100092.06;8252829;28;20484;-82
2022/04/24 10:41:18;;;;;;;2.50;2.30;;;20.90;35.10;;;19.30;38.78;100077.22;8246929;28;20447;-82
2022/04/24 10:45:20;;;;;;;2.33;2.13;;;20.90;34.60;;;19.42;38.66;100058.28;8263020;28;20125;-81
2022/04/24 10:49:24;;;;;;;4.32;2.38;;;21.20;34.80;;;19.31;38.29;100045.31;8261294;28;20125;-81
2022/04/24 10:53:26;;;;;;;2.35;2.15;;;21.20;34.20;;;19.25;38.32;100022.09;8252892;28;20053;-81
2022/04/24 10:57:27;;;;;;;3.80;2.00;;;21.20;34.00;;;19.61;38.03;100069.63;8256249;28;20045;-83
2022/04/24 11:01:34;;;;;;;1.95;1.85;;;21.30;32.90;;;19.64;37.56;100059.53;8251183;28;20113;-80
2022/04/24 11:05:43;;;;;;;4.35;1.92;;;21.20;32.90;;;19.45;37.45;100044.72;8254674;28;20030;-81
2022/04/24 11:09:44;;;;;;;2.05;1.95;;;21.40;33.30;;;19.74;37.56;100070.03;8252013;28;20041;-82
2022/04/24 11:13:46;;;;;;;2.58;1.73;;;21.50;33.80;;;19.64;37.07;100037.50;8249244;28;20034;-82
2022/04/24 11:17:47;;;;;;;2.25;2.00;;;21.80;33.20;;;19.59;36.61;100019.44;8250385;28;20034;-82
2022/04/24 11:21:55;;;;;;;2.10;2.00;;;21.40;32.70;;;19.93;36.63;100049.53;8248939;28;20493;-81
2022/04/24 11:25:59;;;;;;;2.38;2.17;;;21.80;32.70;;;19.78;36.48;100004.28;8251139;28;20567;-81
2022/04/24 11:30:00;;;;;;;1.73;1.63;;;21.50;32.70;;;20.16;36.71;100061.19;8249214;28;20048;-82
2022/04/24 11:34:02;;;;;;;2.20;2.00;;;21.80;33.20;;;20.05;36.23;100030.50;8243143;28;20124;-82
2022/04/24 11:38:12;;;;;;;2.00;1.90;;;21.80;32.50;;;20.00;36.08;100032.00;8232285;28;20053;-82
2022/04/24 11:42:13;;;;;;;1.98;1.88;;;21.80;32.10;;;20.05;36.20;100056.19;8243924;28;20134;-81
2022/04/24 11:50:51;;;;;;;7.18;4.53;;;21.90;32.00;;;20.09;35.60;100012.44;8236550;28;20476;-81
2022/04/24 11:54:54;;;;;;;1.90;1.80;;;21.90;31.80;;;20.18;35.82;100034.53;8254891;28;20113;-82
2022/04/24 11:59:14;;;;;;;2.03;1.75;;;22.00;32.00;;;20.04;35.16;99988.28;8262457;28;20130;-81
2022/04/24 12:03:16;;;;;;;1.60;1.50;;;22.00;31.80;;;19.89;35.57;99961.56;8231246;28;20040;-82
2022/04/24 12:07:18;;;;;;;1.60;1.50;;;22.00;32.00;;;20.10;35.54;99992.91;8230748;28;20046;-82
2022/04/24 12:11:27;;;;;;;1.65;1.55;;;21.90;31.70;;;20.23;34.96;100017.13;8231422;28;20506;-81
2022/04/24 12:15:29;;;;;;;1.75;1.65;;;22.00;31.20;;;20.14;34.72;100004.00;8226185;28;20043;-80
2022/04/24 12:19:31;;;;;;;2.00;1.77;;;21.80;30.70;;;20.04;34.91;99991.75;8230485;28;20043;-81
2022/04/24 12:23:34;;;;;;;2.17;1.98;;;22.00;31.70;;;20.21;34.90;99997.88;8210123;28;20133;-81
2022/04/24 12:27:36;;;;;;;2.05;1.83;;;22.00;31.60;;;19.75;35.04;99930.44;8248637;28;20038;-82
2022/04/24 12:31:38;;;;;;;1.60;1.50;;;22.00;32.00;;;20.02;35.36;99984.97;8212584;28;20138;-81
2022/04/24 12:35:41;;;;;;;1.50;1.40;;;21.90;32.00;;;19.94;35.00;99959.28;8242466;28;20140;-82
2022/04/24 12:39:52;;;;;;;1.70;1.60;;;21.90;31.40;;;20.05;34.41;99974.03;8230206;28;20039;-82
2022/04/24 12:44:14;;;;;;;1.83;1.73;;;21.80;31.60;;;20.13;34.45;99978.50;8235548;28;20110;-81
2022/04/24 12:48:15;;;;;;;1.73;1.63;;;21.90;31.80;;;20.09;35.09;99954.13;8230713;28;20564;-82
2022/04/24 12:52:21;;;;;;;2.10;1.90;;;21.90;32.30;;;20.25;34.94;99977.16;8238390;28;20041;-81
2022/04/24 12:56:23;;;;;;;1.83;1.73;;;21.90;32.00;;;20.34;35.11;99963.75;8264057;28;20133;-82
2022/04/24 13:00:24;;;;;;;1.80;1.67;;;22.00;31.90;;;20.16;34.98;99912.72;8229510;28;20046;-82
2022/04/24 13:04:26;;;;;;;2.10;1.90;;;22.10;32.00;;;20.42;34.76;99931.09;8228671;28;20133;-81
2022/04/24 13:08:29;;;;;;;2.50;1.88;;;22.10;31.70;;;20.36;34.59;99949.47;8229948;28;20466;-81
2022/04/24 13:12:31;;;;;;;2.30;1.70;;;22.10;31.30;;;20.21;34.42;99962.59;8237499;28;20139;-81
2022/04/24 13:20:53;;;;;;;1.70;1.60;;;22.00;31.10;;;19.79;34.68;99923.81;8229183;28;20113;-81
2022/04/24 13:24:55;;;;;;;1.58;1.48;;;21.90;31.10;;;19.44;34.59;99856.84;8244710;28;20145;-81
2022/04/24 13:28:57;;;;;;;1.80;1.70;;;21.80;31.70;;;19.92;34.19;99923.31;8229510;28;20109;-82
2022/04/24 13:32:59;;;;;;;4.85;1.60;;;21.70;31.50;;;19.96;34.11;99929.97;8252889;28;20138;-80
2022/04/24 13:41:22;;;;;;;7.35;1.40;;;21.80;30.60;;;20.00;34.03;99910.06;8211326;28;20559;-81
2022/04/24 13:45:26;;;;;;;1.60;1.50;;;21.80;30.80;;;19.68;33.83;99826.94;8228166;28;20118;-86
2022/04/24 13:49:28;;;;;;;4.82;1.50;;;21.90;31.00;;;20.33;33.72;99924.97;8222856;28;20039;-80
2022/04/24 13:53:31;;;;;;;3.58;1.70;;;21.90;31.10;;;20.21;33.58;99891.84;8225445;28;20053;-80
2022/04/24 13:57:33;;;;;;;1.75;1.65;;;22.00;31.00;;;20.29;33.64;99913.03;8209513;28;20397;-84
2022/04/24 14:01:34;;;;;;;1.60;1.50;;;22.00;30.90;;;20.12;33.57;99876.94;8209996;28;20158;-81
2022/04/24 14:05:37;;;;;;;1.73;1.55;;;22.10;30.90;;;19.96;33.49;99856.59;8227901;28;20030;-81
2022/04/24 14:09:41;;;;;;;2.60;1.55;;;22.00;30.60;;;19.99;33.25;99877.44;8223666;28;20041;-80
2022/04/24 14:13:43;;;;;;;1.70;1.60;;;22.00;30.70;;;19.98;33.07;99901.44;8218096;28;20038;-81
2022/04/24 14:17:45;;;;;;;2.10;1.90;;;22.00;30.40;;;19.86;33.27;99895.66;8226575;28;20484;-80
2022/04/24 14:21:47;;;;;;;2.20;1.77;;;21.90;30.50;;;19.97;33.25;99913.06;8224336;28;20495;-81
2022/04/24 14:25:49;;;;;;;1.85;1.70;;;21.80;30.00;;;19.93;33.28;99899.31;8195139;28;20047;-80
2022/04/24 14:29:51;;;;;;;1.85;1.70;;;21.80;30.60;;;19.88;33.44;99891.84;8231776;28;20038;-81
2022/04/24 14:33:52;;;;;;;1.88;1.67;;;21.70;30.50;;;19.89;33.37;99898.81;8232925;28;20045;-80
2022/04/24 14:37:55;;;;;;;1.65;1.55;;;22.00;30.90;;;19.98;33.38;99914.69;8233130;28;20039;-80
2022/04/24 14:41:57;;;;;;;1.90;1.30;;;21.60;31.00;;;19.94;33.54;99916.03;8232723;28;20030;-79
2022/04/24 14:59:03;;;;;;;1.58;1.48;;;21.70;31.00;;;19.80;33.78;99915.69;8242059;28;20057;-79
2022/04/24 15:03:05;;;;;;;1.70;1.60;;;21.40;31.10;;;19.64;33.76;99905.88;8231627;28;20291;-79
2022/04/24 15:07:06;;;;;;;1.90;1.77;;;21.60;31.20;;;19.71;33.58;99924.63;8230213;28;20372;-79
2022/04/24 15:11:08;;;;;;;2.28;1.88;;;21.60;31.10;;;19.48;33.58;99905.03;8251340;28;20038;-80
2022/04/24 15:15:11;;;;;;;1.90;1.80;;;21.40;31.10;;;19.46;33.64;99913.94;8242467;28;20065;-80
2022/04/24 15:19:12;;;;;;;1.70;1.60;;;21.50;31.10;;;19.33;33.67;99904.81;8243128;28;20051;-80
2022/04/24 15:23:15;;;;;;;2.30;1.83;;;21.40;31.20;;;19.43;33.62;99919.56;8245937;28;20046;-80
2022/04/24 15:27:17;;;;;;;2.85;1.80;;;21.20;31.10;;;19.36;33.81;99926.53;8240322;28;20068;-81
2022/04/24 15:31:18;;;;;;;4.60;1.88;;;21.20;31.30;;;19.29;33.74;99908.78;8245663;28;20407;-80
2022/04/24 15:35:20;;;;;;;2.55;1.85;;;21.20;31.30;;;19.34;34.06;99930.31;8225132;28;20037;-81
2022/04/24 15:39:22;;;;;;;1.90;1.70;;;21.20;31.40;;;19.29;34.04;99927.31;8246631;28;20419;-80
2022/04/24 15:43:23;;;;;;;1.80;1.70;;;21.20;31.50;;;19.30;33.91;99936.91;8214624;28;20037;-80
2022/04/24 15:47:25;;;;;;;1.75;1.65;;;21.00;31.60;;;19.09;34.18;99921.44;8244102;28;20035;-81
2022/04/24 15:51:28;;;;;;;1.75;1.65;;;21.00;31.60;;;19.08;33.96;99936.50;8251149;28;20041;-80
2022/04/24 15:55:33;;;;;;;1.73;1.63;;;21.00;31.60;;;18.94;34.16;99919.41;8232076;28;20041;-80
2022/04/24 15:59:35;;;;;;;2.13;1.92;;;21.00;31.90;;;19.00;34.38;99933.81;8215797;28;20436;-80
2022/04/24 16:03:36;;;;;;;2.75;2.08;;;21.00;32.00;;;18.96;34.35;99930.66;8250488;28;20105;-81
2022/04/24 16:07:40;;;;;;;3.28;2.00;;;20.90;32.20;;;19.08;34.46;99946.25;8234575;28;20037;-81
2022/04/24 16:11:42;;;;;;;3.05;1.80;;;20.90;32.10;;;19.10;34.32;99946.94;8236905;28;20038;-80
2022/04/24 16:15:45;;;;;;;1.73;1.60;;;20.80;32.20;;;18.95;34.49;99920.22;8233076;28;20041;-80
2022/04/24 16:19:47;;;;;;;2.13;1.95;;;20.70;32.20;;;19.06;34.40;99949.06;8239952;28;20045;-80
2022/04/24 16:23:48;;;;;;;1.77;1.67;;;20.80;32.10;;;18.91;34.61;99935.59;8228591;28;20043;-79
2022/04/24 16:27:50;;;;;;;2.45;2.05;;;20.80;32.30;;;18.95;34.48;99958.09;8229666;28;20050;-79
2022/04/24 16:31:51;;;;;;;1.85;1.75;;;20.70;32.30;;;18.70;34.85;99916.63;8213090;28;20470;-79
2022/04/24 16:35:53;;;;;;;1.77;1.67;;;20.70;32.80;;;18.83;34.82;99940.03;8221687;28;20039;-79
2022/04/24 16:39:55;;;;;;;5.30;1.80;;;20.70;32.70;;;18.88;34.91;99962.38;8244893;28;20053;-79
2022/04/24 16:43:57;;;;;;;2.17;1.90;;;20.50;32.90;;;18.90;35.09;99954.28;8241146;28;20034;-79
2022/04/24 16:47:59;;;;;;;5.30;2.03;;;20.70;33.20;;;18.85;35.38;99962.69;8243444;28;20080;-79
2022/04/24 17:01:00;;;;;;;3.55;1.63;;;20.70;33.80;;;18.73;35.56;99964.72;8201127;28;20050;-80
2022/04/24 17:05:06;;;;;;;2.00;1.90;;;20.60;33.50;;;18.42;35.51;99924.72;8230551;28;20050;-79
2022/04/24 17:09:08;;;;;;;2.58;2.28;;;20.60;33.80;;;18.55;35.64;99948.09;8213755;28;20042;-79
2022/04/24 17:13:09;;;;;;;1.90;1.80;;;20.50;33.90;;;18.50;35.85;99948.56;8239363;28;20034;-79
2022/04/24 17:17:11;;;;;;;3.65;1.95;;;20.50;33.90;;;18.48;35.86;99950.53;8245863;28;20539;-79
2022/04/24 17:21:14;;;;;;;1.90;1.77;;;20.50;33.90;;;18.29;36.13;99924.28;8232267;28;20547;-79
2022/04/24 17:25:15;;;;;;;2.38;2.17;;;20.40;34.20;;;18.58;36.17;99985.66;8237430;28;20080;-79
2022/04/24 17:29:17;;;;;;;3.05;2.30;;;20.30;34.30;;;18.44;36.42;99978.25;8218253;28;20492;-79